createdAt,value
2019-03-24T00:00:33.418Z,101368.37
2019-03-24T00:01:41.461Z,101364.34
2019-03-24T00:02:45.564Z,101372.52
2019-03-24T00:03:49.987Z,101366.74
2019-03-24T00:04:54.866Z,101362.29
2019-03-24T00:05:59.337Z,101365.93
2019-03-24T00:07:03.784Z,101361.91
2019-03-24T00:08:08.168Z,101369.61
2019-03-24T00:09:12.620Z,101370.61
2019-03-24T00:10:17.148Z,101367.91
2019-03-24T00:11:21.860Z,101362.98
2019-03-24T00:12:26.636Z,101365.73
2019-03-24T00:13:31.262Z,101368.02
2019-03-24T00:14:35.797Z,101362.25
2019-03-24T00:15:40.445Z,101365.00
2019-03-24T00:16:44.989Z,101365.07
2019-03-24T00:17:49.449Z,101357.88
2019-03-24T00:18:53.980Z,101363.29
2019-03-24T00:19:58.360Z,101358.41
2019-03-24T00:21:03.002Z,101362.47
2019-03-24T00:22:07.738Z,101363.83
2019-03-24T00:23:12.204Z,101358.91
2019-03-24T00:24:16.656Z,101354.84
2019-03-24T00:25:21.108Z,101357.59
2019-03-24T00:26:25.503Z,101355.81
2019-03-24T00:27:30.129Z,101353.14
2019-03-24T00:28:34.699Z,101346.83
2019-03-24T00:29:39.082Z,101355.53
2019-03-24T00:30:43.607Z,101349.27
2019-03-24T00:31:48.005Z,101351.55
2019-03-24T00:32:52.700Z,101350.70
2019-03-24T00:33:57.335Z,101355.19
2019-03-24T00:35:02.290Z,101346.70
2019-03-24T00:36:06.761Z,101351.23
2019-03-24T00:37:11.391Z,101348.98
2019-03-24T00:38:16.353Z,101353.09
2019-03-24T00:39:21.043Z,101351.30
2019-03-24T00:40:25.496Z,101349.52
2019-03-24T00:41:30.465Z,101354.55
2019-03-24T00:42:35.241Z,101353.70
2019-03-24T00:43:39.704Z,101358.26
2019-03-24T00:44:44.077Z,101355.59
2019-03-24T00:45:49.105Z,101352.91
2019-03-24T00:46:53.825Z,101350.24
2019-03-24T00:47:58.297Z,101347.22
2019-03-24T00:49:02.680Z,101348.64
2019-03-24T00:50:07.772Z,101342.44
2019-03-24T00:51:12.546Z,101344.72
2019-03-24T00:52:16.939Z,101345.22
2019-03-24T00:53:21.463Z,101340.30
2019-03-24T00:54:25.914Z,101342.66
2019-03-24T00:55:30.441Z,101341.34
2019-03-24T00:56:35.082Z,101335.95
2019-03-24T00:57:39.823Z,101333.28
2019-03-24T00:58:44.271Z,101332.86
2019-03-24T00:59:48.977Z,101329.33
2019-03-24T01:00:54.073Z,101330.69
2019-03-24T01:01:58.872Z,101327.12
2019-03-24T01:03:03.324Z,101332.57
2019-03-24T01:04:08.285Z,101328.11
2019-03-24T01:05:12.803Z,101334.92
2019-03-24T01:06:17.507Z,101325.52
2019-03-24T01:07:22.146Z,101328.26
2019-03-24T01:08:26.671Z,101327.36
2019-03-24T01:09:31.202Z,101333.27
2019-03-24T01:10:35.647Z,101327.97
2019-03-24T01:11:40.103Z,101329.71
2019-03-24T01:12:44.815Z,101329.81
2019-03-24T01:13:49.344Z,101333.98
2019-03-24T01:14:54.056Z,101326.39
2019-03-24T01:15:58.834Z,101329.16
2019-03-24T01:17:03.397Z,101330.12
2019-03-24T01:18:07.845Z,101327.05
2019-03-24T01:19:12.872Z,101324.81
2019-03-24T01:20:17.925Z,101326.20
2019-03-24T01:21:22.868Z,101319.03
2019-03-24T01:22:27.408Z,101319.03
2019-03-24T01:23:31.938Z,101320.42
2019-03-24T01:24:36.391Z,101315.94
2019-03-24T01:25:41.093Z,101323.66
2019-03-24T01:26:45.547Z,101317.39
2019-03-24T01:27:50.310Z,101321.02
2019-03-24T01:28:54.936Z,101322.83
2019-03-24T01:29:59.401Z,101321.94
2019-03-24T01:31:04.175Z,101321.05
2019-03-24T01:32:08.749Z,101322.41
2019-03-24T01:33:13.502Z,101319.73
2019-03-24T01:34:18.205Z,101317.55
2019-03-24T01:35:22.666Z,101320.66
2019-03-24T01:36:27.540Z,101320.27
2019-03-24T01:37:32.501Z,101324.34
2019-03-24T01:38:37.139Z,101323.00
2019-03-24T01:39:41.909Z,101323.92
2019-03-24T01:40:46.364Z,101316.73
2019-03-24T01:41:50.820Z,101319.43
2019-03-24T01:42:55.538Z,101315.41
2019-03-24T01:43:59.987Z,101312.34
2019-03-24T01:45:04.891Z,101314.61
2019-03-24T01:46:09.428Z,101319.59
2019-03-24T01:47:13.876Z,101311.55
2019-03-24T01:48:19.268Z,101317.48
2019-03-24T01:49:23.717Z,101320.65
2019-03-24T01:50:28.164Z,101312.13
2019-03-24T01:51:32.634Z,101307.68
2019-03-24T01:52:37.356Z,101315.80
2019-03-24T01:53:41.805Z,101313.62
2019-03-24T01:54:46.248Z,101309.16
2019-03-24T01:55:50.756Z,101309.19
2019-03-24T01:56:55.137Z,101311.95
2019-03-24T01:57:59.765Z,101307.97
2019-03-24T01:59:04.392Z,101303.52
2019-03-24T02:00:09.225Z,101303.08
2019-03-24T02:01:14.493Z,101303.58
2019-03-24T02:02:19.025Z,101296.91
2019-03-24T02:03:23.479Z,101298.27
2019-03-24T02:04:27.927Z,101296.94
2019-03-24T02:05:32.304Z,101297.41
2019-03-24T02:06:38.648Z,101302.81
2019-03-24T02:07:43.131Z,101299.67
2019-03-24T02:08:47.664Z,101294.73
2019-03-24T02:09:52.184Z,101285.30
2019-03-24T02:10:56.875Z,101289.81
2019-03-24T02:12:01.651Z,101285.33
2019-03-24T02:13:06.177Z,101288.09
2019-03-24T02:14:10.804Z,101283.18
2019-03-24T02:15:15.871Z,101289.94
2019-03-24T02:16:20.637Z,101287.27
2019-03-24T02:17:25.408Z,101291.35
2019-03-24T02:18:30.160Z,101287.33
2019-03-24T02:19:34.533Z,101293.23
2019-03-24T02:20:38.976Z,101289.20
2019-03-24T02:21:43.923Z,101292.86
2019-03-24T02:22:48.516Z,101289.72
2019-03-24T02:23:53.229Z,101291.10
2019-03-24T02:24:57.596Z,101293.44
2019-03-24T02:26:02.043Z,101295.28
2019-03-24T02:27:06.571Z,101289.93
2019-03-24T02:28:10.942Z,101292.20
2019-03-24T02:29:15.829Z,101290.91
2019-03-24T02:30:20.216Z,101288.67
2019-03-24T02:31:24.917Z,101292.30
2019-03-24T02:32:29.354Z,101295.02
2019-03-24T02:33:33.893Z,101295.08
2019-03-24T02:34:38.662Z,101291.48
2019-03-24T02:35:43.186Z,101291.12
2019-03-24T02:36:47.701Z,101296.52
2019-03-24T02:37:52.141Z,101295.20
2019-03-24T02:38:56.526Z,101293.42
2019-03-24T02:40:01.163Z,101294.77
2019-03-24T02:41:05.681Z,101292.53
2019-03-24T02:42:10.377Z,101297.93
2019-03-24T02:43:14.753Z,101287.16
2019-03-24T02:44:19.213Z,101290.77
2019-03-24T02:45:23.735Z,101290.38
2019-03-24T02:46:28.122Z,101288.16
2019-03-24T02:47:32.495Z,101289.54
2019-03-24T02:48:37.111Z,101291.81
2019-03-24T02:49:41.590Z,101285.11
2019-03-24T02:50:46.026Z,101289.22
2019-03-24T02:51:50.905Z,101285.23
2019-03-24T02:52:55.600Z,101288.41
2019-03-24T02:53:59.979Z,101287.61
2019-03-24T02:55:04.525Z,101291.28
2019-03-24T02:56:09.220Z,101286.88
2019-03-24T02:57:13.610Z,101295.01
2019-03-24T02:58:18.294Z,101289.64
2019-03-24T02:59:22.746Z,101292.36
2019-03-24T03:00:27.573Z,101295.98
2019-03-24T03:01:32.350Z,101291.98
2019-03-24T03:02:36.810Z,101287.53
2019-03-24T03:03:41.502Z,101289.80
2019-03-24T03:04:45.958Z,101287.13
2019-03-24T03:05:50.333Z,101290.28
2019-03-24T03:06:54.948Z,101279.11
2019-03-24T03:07:59.634Z,101282.27
2019-03-24T03:09:05.374Z,101285.45
2019-03-24T03:10:10.330Z,101288.16
2019-03-24T03:11:15.341Z,101285.91
2019-03-24T03:12:20.045Z,101282.34
2019-03-24T03:13:24.732Z,101281.02
2019-03-24T03:14:29.111Z,101284.67
2019-03-24T03:15:33.598Z,101280.22
2019-03-24T03:16:39.262Z,101283.39
2019-03-24T03:17:43.866Z,101277.19
2019-03-24T03:18:48.475Z,101274.54
2019-03-24T03:19:53.799Z,101279.50
2019-03-24T03:20:58.871Z,101277.31
2019-03-24T03:22:03.321Z,101277.39
2019-03-24T03:23:07.841Z,101275.17
2019-03-24T03:24:13.114Z,101273.84
2019-03-24T03:25:17.616Z,101275.66
2019-03-24T03:26:22.560Z,101275.72
2019-03-24T03:27:27.319Z,101276.63
2019-03-24T03:28:31.930Z,101274.82
2019-03-24T03:29:36.314Z,101275.28
2019-03-24T03:30:40.705Z,101277.52
2019-03-24T03:31:45.101Z,101274.36
2019-03-24T03:32:49.459Z,101274.77
2019-03-24T03:33:54.419Z,101275.28
2019-03-24T03:34:59.123Z,101274.39
2019-03-24T03:36:03.908Z,101274.84
2019-03-24T03:37:08.448Z,101271.73
2019-03-24T03:38:13.171Z,101273.98
2019-03-24T03:39:17.662Z,101273.11
2019-03-24T03:40:22.184Z,101270.48
2019-03-24T03:41:26.641Z,101270.97
2019-03-24T03:42:31.275Z,101269.19
2019-03-24T03:43:35.791Z,101270.99
2019-03-24T03:44:40.239Z,101272.36
2019-03-24T03:45:44.776Z,101268.32
2019-03-24T03:46:53.013Z,101270.13
2019-03-24T03:47:55.576Z,101269.23
2019-03-24T03:49:00.028Z,101267.89
2019-03-24T03:50:05.028Z,101269.23
2019-03-24T03:51:09.492Z,101266.08
2019-03-24T03:52:13.995Z,101266.14
2019-03-24T03:53:18.649Z,101274.63
2019-03-24T03:54:23.025Z,101246.55
2019-03-24T03:55:27.799Z,101272.88
2019-03-24T03:56:32.509Z,101266.59
2019-03-24T03:57:36.913Z,101268.83
2019-03-24T03:58:41.363Z,101270.19
2019-03-24T03:59:46.249Z,101272.45
2019-03-24T04:00:50.787Z,101269.75
2019-03-24T04:01:55.219Z,101263.92
2019-03-24T04:02:59.594Z,101261.67
2019-03-24T04:04:04.312Z,101262.16
2019-03-24T04:05:08.822Z,101259.92
2019-03-24T04:06:13.355Z,101260.83
2019-03-24T04:07:17.969Z,101258.65
2019-03-24T04:08:22.668Z,101256.86
2019-03-24T04:09:27.369Z,101267.22
2019-03-24T04:10:32.137Z,101260.95
2019-03-24T04:11:36.863Z,101261.84
2019-03-24T04:12:41.625Z,101256.92
2019-03-24T04:13:46.245Z,101265.95
2019-03-24T04:14:50.632Z,101262.39
2019-03-24T04:15:55.007Z,101264.67
2019-03-24T04:17:07.236Z,101265.16
2019-03-24T04:18:06.430Z,101263.86
2019-03-24T04:19:10.782Z,101269.70
2019-03-24T04:20:15.473Z,101267.03
2019-03-24T04:21:20.009Z,101267.52
2019-03-24T04:22:24.624Z,101266.19
2019-03-24T04:23:29.010Z,101264.45
2019-03-24T04:24:33.367Z,101262.26
2019-03-24T04:25:37.996Z,101267.69
2019-03-24T04:26:42.382Z,101262.38
2019-03-24T04:27:47.157Z,101266.44
2019-03-24T04:28:52.029Z,101270.05
2019-03-24T04:29:56.401Z,101266.48
2019-03-24T04:31:01.204Z,101263.34
2019-03-24T04:32:05.979Z,101262.43
2019-03-24T04:33:10.363Z,101267.37
2019-03-24T04:34:15.241Z,101266.48
2019-03-24T04:35:19.924Z,101263.78
2019-03-24T04:36:24.811Z,101266.48
2019-03-24T04:37:29.276Z,101263.34
2019-03-24T04:38:33.892Z,101266.50
2019-03-24T04:39:38.589Z,101267.39
2019-03-24T04:40:43.265Z,101257.50
2019-03-24T04:41:48.198Z,101262.89
2019-03-24T04:42:52.655Z,101260.20
2019-03-24T04:43:57.028Z,101257.55
2019-03-24T04:45:02.298Z,101256.20
2019-03-24T04:46:06.733Z,101254.86
2019-03-24T04:47:16.619Z,101262.05
2019-03-24T04:48:17.215Z,101260.72
2019-03-24T04:49:21.915Z,101261.17
2019-03-24T04:50:26.287Z,101264.35
2019-03-24T04:51:30.665Z,101261.67
2019-03-24T04:52:35.121Z,101263.93
2019-03-24T04:53:39.987Z,101267.57
2019-03-24T04:54:44.429Z,101260.40
2019-03-24T04:55:49.127Z,101261.29
2019-03-24T04:56:53.814Z,101258.59
2019-03-24T04:57:58.285Z,101264.90
2019-03-24T04:59:02.889Z,101270.30
2019-03-24T05:00:08.135Z,101265.83
2019-03-24T05:01:12.751Z,101269.45
2019-03-24T05:02:17.213Z,101266.76
2019-03-24T05:03:21.589Z,101266.81
2019-03-24T05:04:26.102Z,101270.85
2019-03-24T05:05:31.126Z,101278.50
2019-03-24T05:06:35.695Z,101271.78
2019-03-24T05:07:41.210Z,101275.83
2019-03-24T05:08:46.424Z,101266.84
2019-03-24T05:09:50.949Z,101272.25
2019-03-24T05:10:55.458Z,101274.06
2019-03-24T05:11:59.893Z,101268.23
2019-03-24T05:13:04.662Z,101270.48
2019-03-24T05:14:09.029Z,101272.30
2019-03-24T05:15:13.482Z,101267.41
2019-03-24T05:16:18.345Z,101262.48
2019-03-24T05:17:27.362Z,101266.97
2019-03-24T05:18:29.149Z,101265.19
2019-03-24T05:19:33.763Z,101264.73
2019-03-24T05:20:38.199Z,101264.73
2019-03-24T05:21:42.916Z,101264.73
2019-03-24T05:22:47.411Z,101266.53
2019-03-24T05:23:51.777Z,101265.64
2019-03-24T05:24:56.684Z,101260.27
2019-03-24T05:26:01.050Z,101231.87
2019-03-24T05:27:05.815Z,101267.01
2019-03-24T05:28:10.772Z,101266.10
2019-03-24T05:29:15.148Z,101266.52
2019-03-24T05:30:19.908Z,101274.13
2019-03-24T05:31:24.282Z,101274.97
2019-03-24T05:32:28.723Z,101267.74
2019-03-24T05:33:33.112Z,101268.09
2019-03-24T05:34:37.854Z,101273.89
2019-03-24T05:35:42.781Z,101267.97
2019-03-24T05:36:47.400Z,101266.13
2019-03-24T05:37:51.852Z,101268.33
2019-03-24T05:38:56.546Z,101262.00
2019-03-24T05:40:01.242Z,101260.61
2019-03-24T05:41:05.759Z,101263.72
2019-03-24T05:42:10.452Z,101264.16
2019-03-24T05:43:15.328Z,101260.06
2019-03-24T05:44:19.945Z,101265.39
2019-03-24T05:45:24.703Z,101260.44
2019-03-24T05:46:29.071Z,101262.62
2019-03-24T05:47:37.313Z,101255.02
2019-03-24T05:48:39.623Z,101258.58
2019-03-24T05:49:44.248Z,101255.02
2019-03-24T05:50:48.890Z,101263.11
2019-03-24T05:51:53.248Z,101262.67
2019-03-24T05:52:57.881Z,101262.23
2019-03-24T05:54:02.257Z,101261.34
2019-03-24T05:55:06.951Z,101254.61
2019-03-24T05:56:11.563Z,101261.80
2019-03-24T05:57:16.078Z,101260.89
2019-03-24T05:58:21.047Z,101264.48
2019-03-24T05:59:25.686Z,101264.02
2019-03-24T06:00:30.131Z,101264.93
2019-03-24T06:01:34.999Z,101259.11
2019-03-24T06:02:39.765Z,101255.06
2019-03-24T06:03:44.476Z,101258.22
2019-03-24T06:04:49.162Z,101255.52
2019-03-24T06:05:53.539Z,101258.67
2019-03-24T06:06:57.921Z,101256.43
2019-03-24T06:08:02.861Z,101264.54
2019-03-24T06:09:07.880Z,101259.14
2019-03-24T06:10:12.495Z,101259.60
2019-03-24T06:11:17.262Z,101259.14
2019-03-24T06:12:21.637Z,101261.83
2019-03-24T06:13:26.040Z,101266.78
2019-03-24T06:14:30.903Z,101264.52
2019-03-24T06:15:36.184Z,101266.80
2019-03-24T06:16:40.964Z,101263.70
2019-03-24T06:17:48.090Z,101267.77
2019-03-24T06:18:52.082Z,101262.83
2019-03-24T06:19:56.532Z,101267.34
2019-03-24T06:21:01.052Z,101265.11
2019-03-24T06:22:05.570Z,101268.27
2019-03-24T06:23:09.944Z,101268.28
2019-03-24T06:24:14.971Z,101263.78
2019-03-24T06:25:19.346Z,101271.39
2019-03-24T06:26:23.705Z,101279.00
2019-03-24T06:27:28.903Z,101275.39
2019-03-24T06:28:33.276Z,101285.67
2019-03-24T06:29:37.663Z,101284.28
2019-03-24T06:30:42.035Z,101282.02
2019-03-24T06:31:46.402Z,101280.63
2019-03-24T06:32:50.847Z,101286.84
2019-03-24T06:33:55.308Z,101283.67
2019-03-24T06:34:59.918Z,101287.62
2019-03-24T06:36:04.358Z,101282.62
2019-03-24T06:37:08.721Z,101278.93
2019-03-24T06:38:13.414Z,101286.53
2019-03-24T06:39:17.807Z,101280.15
2019-03-24T06:40:22.496Z,101283.17
2019-03-24T06:41:26.943Z,101280.87
2019-03-24T06:42:31.877Z,101284.41
2019-03-24T06:43:36.241Z,101286.58
2019-03-24T06:44:40.875Z,101286.07
2019-03-24T06:45:45.324Z,101284.63
2019-03-24T06:46:49.769Z,101285.92
2019-03-24T06:47:58.246Z,101285.36
2019-03-24T06:49:00.966Z,101288.44
2019-03-24T06:50:05.621Z,101289.25
2019-03-24T06:51:10.152Z,101284.28
2019-03-24T06:52:15.203Z,101281.53
2019-03-24T06:53:19.901Z,101281.02
2019-03-24T06:54:24.344Z,101279.64
2019-03-24T06:55:29.069Z,101275.11
2019-03-24T06:56:33.520Z,101278.22
2019-03-24T06:57:38.279Z,101275.44
2019-03-24T06:58:42.922Z,101274.06
2019-03-24T06:59:47.315Z,101274.47
2019-03-24T07:00:51.828Z,101275.33
2019-03-24T07:01:56.459Z,101278.43
2019-03-24T07:03:00.906Z,101277.02
2019-03-24T07:04:05.423Z,101280.56
2019-03-24T07:05:10.608Z,101278.23
2019-03-24T07:06:15.465Z,101269.66
2019-03-24T07:07:20.148Z,101275.89
2019-03-24T07:08:24.519Z,101266.38
2019-03-24T07:09:28.971Z,101270.37
2019-03-24T07:10:33.364Z,101268.53
2019-03-24T07:11:38.078Z,101267.52
2019-03-24T07:12:42.822Z,101273.80
2019-03-24T07:13:47.192Z,101272.38
2019-03-24T07:14:51.817Z,101269.59
2019-03-24T07:15:56.279Z,101267.30
2019-03-24T07:17:00.651Z,101261.83
2019-03-24T07:18:08.737Z,101262.62
2019-03-24T07:19:11.196Z,101264.38
2019-03-24T07:20:15.739Z,101263.44
2019-03-24T07:21:20.379Z,101265.18
2019-03-24T07:22:24.768Z,101260.64
2019-03-24T07:23:29.145Z,101266.02
2019-03-24T07:24:33.594Z,101259.23
2019-03-24T07:25:38.055Z,101262.85
2019-03-24T07:26:42.492Z,101266.02
2019-03-24T07:27:47.115Z,101263.77
2019-03-24T07:28:51.563Z,101264.20
2019-03-24T07:29:56.255Z,101262.85
2019-03-24T07:31:00.714Z,101256.52
2019-03-24T07:32:05.422Z,101258.73
2019-03-24T07:33:10.038Z,101261.34
2019-03-24T07:34:14.657Z,101263.55
2019-03-24T07:35:19.030Z,101263.86
2019-03-24T07:36:23.415Z,101260.20
2019-03-24T07:37:28.047Z,101259.19
2019-03-24T07:38:32.414Z,101258.66
2019-03-24T07:39:36.794Z,101261.77
2019-03-24T07:40:41.243Z,101260.78
2019-03-24T07:41:45.647Z,101258.47
2019-03-24T07:42:50.330Z,101256.59
2019-03-24T07:43:55.026Z,101261.45
2019-03-24T07:44:59.526Z,101266.33
2019-03-24T07:46:03.993Z,101262.63
2019-03-24T07:47:13.676Z,101258.94
2019-03-24T07:48:19.323Z,101260.63
2019-03-24T07:49:24.066Z,101257.36
2019-03-24T07:50:28.755Z,101252.73
2019-03-24T07:51:33.820Z,101249.07
2019-03-24T07:52:38.257Z,101253.52
2019-03-24T07:53:42.630Z,101260.61
2019-03-24T07:54:47.075Z,101249.30
2019-03-24T07:55:51.851Z,101246.91
2019-03-24T07:56:56.374Z,101243.70
2019-03-24T07:58:00.740Z,101244.06
2019-03-24T07:59:05.256Z,101239.01
2019-03-24T08:00:11.491Z,101239.36
2019-03-24T08:01:16.193Z,101240.58
2019-03-24T08:02:20.642Z,101247.63
2019-03-24T08:03:25.350Z,101237.61
2019-03-24T08:04:29.797Z,101237.55
2019-03-24T08:05:34.416Z,101238.28
2019-03-24T08:06:39.044Z,101243.05
2019-03-24T08:07:43.491Z,101232.61
2019-03-24T08:08:48.232Z,101231.57
2019-03-24T08:09:52.850Z,101239.11
2019-03-24T08:10:57.600Z,101229.02
2019-03-24T08:12:02.554Z,101232.08
2019-03-24T08:13:07.074Z,101235.09
2019-03-24T08:14:11.692Z,101232.73
2019-03-24T08:15:16.218Z,101233.94
2019-03-24T08:16:20.607Z,101239.16
2019-03-24T08:17:25.045Z,101223.67
2019-03-24T08:18:30.339Z,101224.31
2019-03-24T08:19:34.817Z,101227.25
2019-03-24T08:20:39.607Z,101221.16
2019-03-24T08:21:44.311Z,101215.96
2019-03-24T08:22:48.826Z,101214.40
2019-03-24T08:23:53.507Z,101216.00
2019-03-24T08:24:57.880Z,101215.80
2019-03-24T08:26:02.402Z,101213.34
2019-03-24T08:27:06.936Z,101211.33
2019-03-24T08:28:14.499Z,101214.20
2019-03-24T08:29:24.098Z,101208.98
2019-03-24T08:30:37.552Z,101215.41
2019-03-24T08:31:45.582Z,101210.18
2019-03-24T08:32:55.938Z,101207.15
2019-03-24T08:34:00.397Z,101205.05
2019-03-24T08:35:04.967Z,101204.30
2019-03-24T08:36:09.417Z,101195.04
2019-03-24T08:37:13.876Z,101194.89
2019-03-24T08:38:18.317Z,101193.81
2019-03-24T08:39:22.691Z,101187.30
2019-03-24T08:40:27.137Z,101186.33
2019-03-24T08:41:32.091Z,101188.47
2019-03-24T08:42:36.612Z,101185.65
2019-03-24T08:43:41.243Z,101183.36
2019-03-24T08:44:46.046Z,101183.22
2019-03-24T08:45:50.468Z,101177.31
2019-03-24T08:46:55.587Z,101178.67
2019-03-24T08:48:00.358Z,101175.02
2019-03-24T08:49:04.885Z,101171.41
2019-03-24T08:50:09.347Z,101165.52
2019-03-24T08:51:13.715Z,101166.40
2019-03-24T08:52:18.432Z,101165.05
2019-03-24T08:53:22.811Z,101154.59
2019-03-24T08:54:27.186Z,101151.36
2019-03-24T08:55:31.978Z,101149.44
2019-03-24T08:56:36.430Z,101148.03
2019-03-24T08:57:41.063Z,101147.04
2019-03-24T08:58:45.927Z,101146.90
2019-03-24T08:59:50.627Z,101146.38
2019-03-24T09:00:55.003Z,101146.27
2019-03-24T09:01:59.623Z,101145.74
2019-03-24T09:03:04.354Z,101141.06
2019-03-24T09:04:08.807Z,101142.25
2019-03-24T09:05:13.341Z,101147.55
2019-03-24T09:06:17.867Z,101141.53
2019-03-24T09:07:22.563Z,101135.06
2019-03-24T09:08:27.286Z,101140.33
2019-03-24T09:09:31.701Z,101135.67
2019-03-24T09:10:36.148Z,101136.92
2019-03-24T09:11:40.526Z,101130.48
2019-03-24T09:12:45.169Z,101134.42
2019-03-24T09:13:50.122Z,101135.61
2019-03-24T09:14:54.584Z,101136.34
2019-03-24T09:15:59.031Z,101131.69
2019-03-24T09:17:03.656Z,101131.16
2019-03-24T09:18:08.213Z,101135.08
2019-03-24T09:19:12.748Z,101128.70
2019-03-24T09:20:17.275Z,101127.81
2019-03-24T09:21:21.726Z,101134.08
2019-03-24T09:22:26.204Z,101128.44
2019-03-24T09:23:30.577Z,101121.52
2019-03-24T09:24:35.025Z,101124.92
2019-03-24T09:25:39.717Z,101126.16
2019-03-24T09:26:44.098Z,101122.38
2019-03-24T09:27:48.566Z,101123.95
2019-03-24T09:28:52.945Z,101122.94
2019-03-24T09:29:57.716Z,101114.69
2019-03-24T09:31:02.194Z,101114.21
2019-03-24T09:32:06.725Z,101111.91
2019-03-24T09:33:11.508Z,101109.95
2019-03-24T09:34:15.952Z,101116.28
2019-03-24T09:35:20.327Z,101115.70
2019-03-24T09:36:25.022Z,101108.84
2019-03-24T09:37:29.401Z,101112.33
2019-03-24T09:38:33.872Z,101108.09
2019-03-24T09:39:38.323Z,101108.27
2019-03-24T09:40:42.856Z,101103.61
2019-03-24T09:41:47.492Z,101107.58
2019-03-24T09:42:54.281Z,101102.01
2019-03-24T09:43:58.948Z,101097.70
2019-03-24T09:45:03.523Z,101104.29
2019-03-24T09:46:10.094Z,101094.52
2019-03-24T09:47:14.397Z,101097.14
2019-03-24T09:48:18.854Z,101086.75
2019-03-24T09:49:23.695Z,101096.28
2019-03-24T09:50:28.510Z,101089.38
2019-03-24T09:51:32.884Z,101086.53
2019-03-24T09:52:37.401Z,101086.30
2019-03-24T09:53:42.131Z,101076.58
2019-03-24T09:54:46.998Z,101077.30
2019-03-24T09:56:51.051Z,101074.06
2019-03-24T09:57:55.872Z,101076.84
2019-03-24T09:59:00.472Z,101076.66
2019-03-24T10:00:05.548Z,101076.08
2019-03-24T10:01:10.290Z,101075.47
2019-03-24T10:02:14.977Z,101081.50
2019-03-24T10:03:19.360Z,101076.70
2019-03-24T10:04:23.820Z,101079.64
2019-03-24T10:05:28.402Z,101076.48
2019-03-24T10:06:32.851Z,101076.10
2019-03-24T10:07:37.703Z,101075.80
2019-03-24T10:08:47.059Z,101076.84
2019-03-24T10:09:48.606Z,101073.81
2019-03-24T10:10:53.906Z,101077.22
2019-03-24T10:11:58.408Z,101071.45
2019-03-24T10:13:03.266Z,101069.47
2019-03-24T10:14:07.734Z,101065.04
2019-03-24T10:15:12.765Z,101068.10
2019-03-24T10:16:18.318Z,101069.77
2019-03-24T10:17:22.702Z,101065.54
2019-03-24T10:18:27.406Z,101067.72
2019-03-24T10:19:32.278Z,101069.78
2019-03-24T10:20:36.734Z,101069.16
2019-03-24T10:21:41.225Z,101070.47
2019-03-24T10:22:45.696Z,101068.52
2019-03-24T10:23:50.740Z,101065.72
2019-03-24T10:24:55.390Z,101063.07
2019-03-24T10:26:00.007Z,101066.09
2019-03-24T10:27:04.460Z,101061.92
2019-03-24T10:28:08.928Z,101057.51
2019-03-24T10:29:13.320Z,101060.87
2019-03-24T10:30:18.090Z,101051.39
2019-03-24T10:31:22.562Z,101060.72
2019-03-24T10:32:27.010Z,101054.85
2019-03-24T10:33:32.841Z,101052.67
2019-03-24T10:34:37.281Z,101050.35
2019-03-24T10:35:41.653Z,101047.68
2019-03-24T10:36:46.028Z,101051.05
2019-03-24T10:37:50.480Z,101048.23
2019-03-24T10:38:55.134Z,101038.85
2019-03-24T10:39:59.551Z,101035.59
2019-03-24T10:41:03.961Z,101037.55
2019-03-24T10:42:08.723Z,101040.69
2019-03-24T10:43:13.181Z,101047.73
2019-03-24T10:44:17.764Z,101034.07
2019-03-24T10:45:22.219Z,101040.40
2019-03-24T10:46:26.881Z,101037.31
2019-03-24T10:47:31.367Z,101037.96
2019-03-24T10:48:35.741Z,101041.63
2019-03-24T10:49:40.210Z,101037.42
2019-03-24T10:50:44.914Z,101036.22
2019-03-24T10:51:49.629Z,101040.36
2019-03-24T10:52:54.163Z,101042.61
2019-03-24T10:53:58.660Z,101036.75
2019-03-24T10:55:03.226Z,101040.05
2019-03-24T10:56:07.626Z,101036.83
2019-03-24T10:57:12.084Z,101034.58
2019-03-24T10:58:16.543Z,101032.16
2019-03-24T10:59:21.017Z,101039.52
2019-03-24T11:00:37.327Z,101038.23
2019-03-24T11:01:41.716Z,101034.81
2019-03-24T11:02:46.091Z,101030.59
2019-03-24T11:03:50.476Z,101029.55
2019-03-24T11:04:54.921Z,101030.55
2019-03-24T11:05:59.414Z,101023.95
2019-03-24T11:07:03.942Z,101028.36
2019-03-24T11:08:08.624Z,101024.09
2019-03-24T11:09:13.277Z,101019.25
2019-03-24T11:10:18.105Z,101022.23
2019-03-24T11:11:22.780Z,101018.51
2019-03-24T11:12:27.165Z,101012.95
2019-03-24T11:13:31.806Z,101010.62
2019-03-24T11:14:42.295Z,100992.50
2019-03-24T11:15:47.071Z,101010.81
2019-03-24T11:16:51.747Z,101015.91
2019-03-24T11:17:56.485Z,101005.28
2019-03-24T11:19:01.287Z,101007.05
2019-03-24T11:20:06.618Z,101006.87
2019-03-24T11:21:11.033Z,101009.41
2019-03-24T11:22:15.737Z,101006.81
2019-03-24T11:23:20.193Z,101010.72
2019-03-24T11:24:25.534Z,101016.50
2019-03-24T11:25:30.070Z,101012.22
2019-03-24T11:26:34.554Z,101006.06
2019-03-24T11:27:39.603Z,101009.50
2019-03-24T11:28:44.387Z,101009.24
2019-03-24T11:29:48.925Z,101005.45
2019-03-24T11:30:53.621Z,100991.50
2019-03-24T11:31:57.991Z,101002.72
2019-03-24T11:33:02.711Z,101001.75
2019-03-24T11:34:07.470Z,100997.44
2019-03-24T11:35:12.779Z,100994.62
2019-03-24T11:36:17.502Z,100998.84
2019-03-24T11:37:22.169Z,100999.59
2019-03-24T11:38:27.048Z,100993.45
2019-03-24T11:39:31.426Z,100997.92
2019-03-24T11:40:36.116Z,100998.23
2019-03-24T11:41:40.540Z,100996.59
2019-03-24T11:42:45.155Z,100989.14
2019-03-24T11:43:49.888Z,100991.70
2019-03-24T11:44:54.357Z,100993.16
2019-03-24T11:45:59.118Z,100989.84
2019-03-24T11:47:03.502Z,100990.42
2019-03-24T11:48:08.121Z,100987.91
2019-03-24T11:49:19.546Z,100986.53
2019-03-24T11:50:23.993Z,100982.34
2019-03-24T11:51:28.529Z,100978.98
2019-03-24T11:52:33.550Z,100977.92
2019-03-24T11:53:38.130Z,100982.61
2019-03-24T11:54:42.506Z,100978.02
2019-03-24T11:55:47.144Z,100976.27
2019-03-24T11:56:51.848Z,100977.91
2019-03-24T11:58:05.357Z,100982.91
2019-03-24T11:59:03.138Z,100977.05
2019-03-24T12:00:09.028Z,100979.09
2019-03-24T12:01:13.568Z,100975.48
2019-03-24T12:02:18.350Z,100980.38
2019-03-24T12:03:25.227Z,100979.11
2019-03-24T12:04:29.315Z,100974.21
2019-03-24T12:05:34.115Z,100976.64
2019-03-24T12:06:38.825Z,100975.09
2019-03-24T12:07:43.330Z,100974.78
2019-03-24T12:08:47.864Z,100970.41
2019-03-24T12:09:52.573Z,100970.89
2019-03-24T12:10:57.280Z,100965.98
2019-03-24T12:12:01.745Z,100971.69
2019-03-24T12:13:06.280Z,100968.33
2019-03-24T12:14:11.245Z,100971.26
2019-03-24T12:15:15.769Z,100967.06
2019-03-24T12:16:20.555Z,100967.85
2019-03-24T12:17:25.083Z,100964.41
2019-03-24T12:18:29.526Z,100974.79
2019-03-24T12:19:34.390Z,100970.89